TAF and METAR

Decoding for American and Canadian METARs and TAFs is not fully implemented.

Could not understand the following METAR

KBBF 061935Z AUTO 36011KT 10SM SCT025 60/60 A3008 RMK A01
No TAF available for Brazos 133B Oilp